Terminal Aerodrome Forecast
Issued by NWS Upton, NY

Home | Current Version | Previous Version | Text Only | Print | Product List | Glossary On
Versions: 1 2 3 4 5 6 7 8 9 10 11 12 13 14 15 16 17 18 19 20 21 22 23 24 25
000
FTUS41 KOKX 211400 AAA
TAFISP
TAF AMD
KISP 211430Z 2115/2212 14005KT P6SM SCT250
     FM211800 15007KT P6SM SCT250
     FM212000 20010KT P6SM SCT250
     FM220200 21003KT P6SM SCT250
     FM220600 20003KT P6SM FEW005 BKN250=

USA.gov is the U.S. government's official web portal to all federal, state and local government web resources and services.